createdAt,value
2017-07-19T00:00:28.197Z,20.6
2017-07-19T00:01:30.039Z,20.5
2017-07-19T00:02:33.301Z,20.5
2017-07-19T00:03:34.992Z,20.5
2017-07-19T00:04:36.641Z,20.5
2017-07-19T00:05:38.384Z,20.6
2017-07-19T00:06:40.053Z,20.4
2017-07-19T00:07:41.785Z,20.5
2017-07-19T00:08:43.445Z,20.5
2017-07-19T00:09:45.176Z,20.4
2017-07-19T00:10:46.830Z,20.4
2017-07-19T00:11:48.562Z,20.5
2017-07-19T00:12:50.213Z,20.5
2017-07-19T00:13:51.956Z,20.4
2017-07-19T00:14:53.605Z,20.4
2017-07-19T00:15:55.352Z,20.3
2017-07-19T00:16:56.998Z,20.4
2017-07-19T00:17:58.745Z,20.4
2017-07-19T00:19:00.392Z,20.4
2017-07-19T00:20:02.131Z,20.4
2017-07-19T00:21:03.789Z,20.4
2017-07-19T00:22:05.538Z,20.4
2017-07-19T00:23:07.209Z,20.4
2017-07-19T00:24:08.912Z,20.4
2017-07-19T00:25:10.584Z,20.4
2017-07-19T00:26:12.310Z,20.2
2017-07-19T00:27:13.966Z,20.4
2017-07-19T00:28:15.684Z,20.3
2017-07-19T00:29:17.338Z,20.4
2017-07-19T00:30:19.082Z,20.4
2017-07-19T00:31:20.740Z,20.4
2017-07-19T00:32:22.395Z,20.3
2017-07-19T00:33:24.039Z,20.3
2017-07-19T00:34:25.781Z,20.3
2017-07-19T00:35:27.440Z,20.2
2017-07-19T00:36:30.811Z,20.3
2017-07-19T00:37:32.463Z,20.3
2017-07-19T00:38:34.284Z,20.3
2017-07-19T00:39:35.933Z,20.2
2017-07-19T00:40:37.782Z,20.3
2017-07-19T00:41:39.433Z,20.3
2017-07-19T00:42:41.276Z,20.3
2017-07-19T00:43:42.924Z,20.2
2017-07-19T00:44:44.769Z,20.3
2017-07-19T00:45:46.416Z,20.3
2017-07-19T00:46:48.268Z,20.3
2017-07-19T00:47:49.920Z,20.3
2017-07-19T00:48:51.761Z,20.2
2017-07-19T00:49:53.417Z,20.3
2017-07-19T00:50:55.256Z,20.1
2017-07-19T00:51:56.906Z,20.1
2017-07-19T00:52:58.751Z,20.1
2017-07-19T00:54:00.398Z,20.1
2017-07-19T00:55:03.166Z,20.1
2017-07-19T00:56:04.815Z,20.1
2017-07-19T00:57:06.645Z,20.2
2017-07-19T00:58:08.309Z,20.1
2017-07-19T00:59:10.134Z,20.1
2017-07-19T01:00:11.797Z,20.2
2017-07-19T01:01:13.630Z,20.0
2017-07-19T01:02:15.277Z,20.1
2017-07-19T01:03:17.119Z,20.1
2017-07-19T01:04:18.779Z,20.1
2017-07-19T01:05:20.624Z,20.1
2017-07-19T01:06:22.266Z,20.1
2017-07-19T01:07:24.031Z,20.0
2017-07-19T01:08:25.699Z,20.1
2017-07-19T01:09:27.422Z,20.1
2017-07-19T01:10:29.066Z,20.1
2017-07-19T01:11:30.820Z,20.0
2017-07-19T01:12:32.481Z,20.0
2017-07-19T01:13:34.284Z,20.0
2017-07-19T01:14:35.943Z,20.0
2017-07-19T01:15:37.784Z,20.0
2017-07-19T01:16:39.429Z,20.0
2017-07-19T01:17:41.290Z,19.9
2017-07-19T01:18:42.943Z,19.9
2017-07-19T01:19:44.789Z,20.0
2017-07-19T01:20:46.435Z,19.9
2017-07-19T01:21:48.293Z,19.9
2017-07-19T01:22:49.941Z,19.9
2017-07-19T01:23:51.781Z,19.9
2017-07-19T01:24:53.429Z,19.9
2017-07-19T01:25:55.302Z,20.0
2017-07-19T01:26:56.958Z,19.9
2017-07-19T01:27:58.771Z,19.8
2017-07-19T01:29:00.419Z,19.9
2017-07-19T01:30:02.266Z,19.9
2017-07-19T01:31:03.913Z,19.9
2017-07-19T01:32:05.762Z,19.9
2017-07-19T01:33:07.410Z,19.8
2017-07-19T01:34:09.264Z,19.9
2017-07-19T01:35:10.933Z,19.8
2017-07-19T01:36:12.757Z,19.9
2017-07-19T01:37:14.416Z,19.8
2017-07-19T01:38:16.242Z,19.9
2017-07-19T01:39:17.888Z,19.8
2017-07-19T01:40:19.747Z,19.8
2017-07-19T01:41:21.414Z,19.8
2017-07-19T01:42:23.232Z,19.8
2017-07-19T01:43:24.879Z,19.8
2017-07-19T01:44:26.726Z,19.9
2017-07-19T01:45:28.382Z,19.8
2017-07-19T01:46:30.220Z,19.8
2017-07-19T01:47:31.873Z,19.7
2017-07-19T01:48:33.723Z,19.7
2017-07-19T01:49:35.377Z,19.8
2017-07-19T01:50:37.106Z,19.8
2017-07-19T01:51:38.754Z,19.7
2017-07-19T01:52:40.618Z,19.7
2017-07-19T01:53:42.277Z,19.8
2017-07-19T01:54:43.998Z,19.7
2017-07-19T01:55:45.642Z,19.8
2017-07-19T01:56:47.393Z,19.7
2017-07-19T01:57:49.039Z,19.7
2017-07-19T01:58:50.793Z,19.7
2017-07-19T01:59:52.457Z,19.7
2017-07-19T02:00:54.177Z,19.6
2017-07-19T02:01:55.833Z,19.6
2017-07-19T02:02:57.575Z,19.6
2017-07-19T02:03:59.238Z,19.6
2017-07-19T02:05:00.965Z,19.5
2017-07-19T02:06:02.612Z,19.6
2017-07-19T02:07:04.357Z,19.6
2017-07-19T02:08:06.008Z,19.6
2017-07-19T02:09:07.750Z,19.6
2017-07-19T02:10:09.398Z,19.6
2017-07-19T02:11:11.149Z,19.6
2017-07-19T02:12:12.795Z,19.5
2017-07-19T02:13:14.539Z,19.5
2017-07-19T02:14:16.191Z,19.6
2017-07-19T02:15:17.929Z,19.6
2017-07-19T02:16:19.582Z,19.5
2017-07-19T02:17:21.329Z,19.6
2017-07-19T02:18:23.018Z,19.5
2017-07-19T02:19:24.723Z,19.5
2017-07-19T02:20:26.371Z,19.5
2017-07-19T02:21:28.106Z,19.4
2017-07-19T02:22:29.758Z,19.4
2017-07-19T02:23:31.498Z,19.4
2017-07-19T02:24:33.148Z,19.3
2017-07-19T02:25:34.894Z,19.4
2017-07-19T02:26:36.542Z,19.4
2017-07-19T02:27:38.286Z,19.4
2017-07-19T02:28:39.933Z,19.5
2017-07-19T02:29:41.676Z,19.4
2017-07-19T02:30:43.334Z,19.4
2017-07-19T02:31:45.122Z,19.4
2017-07-19T02:32:46.773Z,19.5
2017-07-19T02:33:48.441Z,19.5
2017-07-19T02:34:50.089Z,19.5
2017-07-19T02:35:51.853Z,19.5
2017-07-19T02:36:53.503Z,19.4
2017-07-19T02:37:55.230Z,19.4
2017-07-19T02:38:56.878Z,19.4
2017-07-19T02:39:58.747Z,19.4
2017-07-19T02:41:00.407Z,19.5
2017-07-19T02:42:02.136Z,19.5
2017-07-19T02:43:03.841Z,19.5
2017-07-19T02:44:05.523Z,19.4
2017-07-19T02:45:07.170Z,19.4
2017-07-19T02:46:08.908Z,19.3
2017-07-19T02:47:10.563Z,19.3
2017-07-19T02:48:12.301Z,19.3
2017-07-19T02:49:13.945Z,19.1
2017-07-19T02:50:15.718Z,19.0
2017-07-19T02:51:17.380Z,19.1
2017-07-19T02:52:19.088Z,19.2
2017-07-19T02:53:20.737Z,19.2
2017-07-19T02:54:22.481Z,19.2
2017-07-19T02:55:24.126Z,19.2
2017-07-19T02:56:25.898Z,19.2
2017-07-19T02:57:27.548Z,19.2
2017-07-19T02:58:29.265Z,19.3
2017-07-19T02:59:30.912Z,19.3
2017-07-19T03:00:32.661Z,19.3
2017-07-19T03:01:34.330Z,19.3
2017-07-19T03:02:36.049Z,19.3
2017-07-19T03:03:37.696Z,19.3
2017-07-19T03:04:39.546Z,19.2
2017-07-19T03:05:41.197Z,19.3
2017-07-19T03:06:42.937Z,19.2
2017-07-19T03:07:44.590Z,19.3
2017-07-19T03:08:46.351Z,19.2
2017-07-19T03:09:48.000Z,19.2
2017-07-19T03:10:49.725Z,19.3
2017-07-19T03:11:52.867Z,19.3
2017-07-19T03:12:54.519Z,19.3
2017-07-19T03:13:56.322Z,19.3
2017-07-19T03:14:57.973Z,19.3
2017-07-19T03:15:59.713Z,19.3
2017-07-19T03:17:01.361Z,19.3
2017-07-19T03:18:03.110Z,19.3
2017-07-19T03:19:04.766Z,19.3
2017-07-19T03:20:06.522Z,19.3
2017-07-19T03:21:08.156Z,19.3
2017-07-19T03:22:09.891Z,19.3
2017-07-19T03:23:11.544Z,19.3
2017-07-19T03:24:13.281Z,19.4
2017-07-19T03:25:14.928Z,19.3
2017-07-19T03:26:16.682Z,19.2
2017-07-19T03:27:18.326Z,19.3
2017-07-19T03:28:20.066Z,19.3
2017-07-19T03:29:21.735Z,19.3
2017-07-19T03:30:23.462Z,19.3
2017-07-19T03:31:25.118Z,19.3
2017-07-19T03:32:26.859Z,19.3
2017-07-19T03:33:28.503Z,19.2
2017-07-19T03:34:30.246Z,19.3
2017-07-19T03:35:31.899Z,19.2
2017-07-19T03:36:33.667Z,19.3
2017-07-19T03:37:35.321Z,19.3
2017-07-19T03:38:36.987Z,19.2
2017-07-19T03:39:38.638Z,19.3
2017-07-19T03:40:40.424Z,19.3
2017-07-19T03:41:42.079Z,19.3
2017-07-19T03:42:43.772Z,19.3
2017-07-19T03:43:45.427Z,19.4
2017-07-19T03:44:47.211Z,19.3
2017-07-19T03:45:48.858Z,19.2
2017-07-19T03:46:50.610Z,19.2
2017-07-19T03:47:52.257Z,19.3
2017-07-19T03:48:54.012Z,19.3
2017-07-19T03:49:55.664Z,19.3
2017-07-19T03:50:57.391Z,19.2
2017-07-19T03:51:59.045Z,19.3
2017-07-19T03:53:00.787Z,19.3
2017-07-19T03:54:02.440Z,19.3
2017-07-19T03:55:04.194Z,19.3
2017-07-19T03:56:05.861Z,19.3
2017-07-19T03:57:07.677Z,19.3
2017-07-19T03:58:09.326Z,19.4
2017-07-19T03:59:11.079Z,19.4
2017-07-19T04:00:12.741Z,19.4
2017-07-19T04:01:14.475Z,19.3
2017-07-19T04:02:16.127Z,19.3
2017-07-19T04:03:17.869Z,19.3
2017-07-19T04:04:19.543Z,19.4
2017-07-19T04:05:21.353Z,19.4
2017-07-19T04:06:23.011Z,19.4
2017-07-19T04:07:24.747Z,19.5
2017-07-19T04:08:26.393Z,19.5
2017-07-19T04:09:28.141Z,19.5
2017-07-19T04:10:29.790Z,19.4
2017-07-19T04:11:31.580Z,19.4
2017-07-19T04:12:33.238Z,19.4
2017-07-19T04:13:35.029Z,19.4
2017-07-19T04:14:36.681Z,19.4
2017-07-19T04:15:38.435Z,19.4
2017-07-19T04:16:40.084Z,19.4
2017-07-19T04:17:41.956Z,19.3
2017-07-19T04:18:43.611Z,19.4
2017-07-19T04:19:45.448Z,19.5
2017-07-19T04:20:47.101Z,19.5
2017-07-19T04:21:48.843Z,19.5
2017-07-19T04:22:50.490Z,19.5
2017-07-19T04:23:52.339Z,19.4
2017-07-19T04:24:53.990Z,19.4
2017-07-19T04:25:55.849Z,19.5
2017-07-19T04:26:57.504Z,19.4
2017-07-19T04:27:59.327Z,19.5
2017-07-19T04:29:00.979Z,19.4
2017-07-19T04:30:02.833Z,19.5
2017-07-19T04:31:04.526Z,19.4
2017-07-19T04:32:06.307Z,19.4
2017-07-19T04:33:07.963Z,19.4
2017-07-19T04:34:09.760Z,19.5
2017-07-19T04:35:11.419Z,19.5
2017-07-19T04:36:13.152Z,19.5
2017-07-19T04:37:14.860Z,19.6
2017-07-19T04:38:16.651Z,19.6
2017-07-19T04:39:18.298Z,19.5
2017-07-19T04:40:20.051Z,19.6
2017-07-19T04:41:21.717Z,19.6
2017-07-19T04:42:24.456Z,19.6
2017-07-19T04:43:26.108Z,19.6
2017-07-19T04:44:27.861Z,19.7
2017-07-19T04:45:29.508Z,19.7
2017-07-19T04:46:31.239Z,19.8
2017-07-19T04:47:32.892Z,19.8
2017-07-19T04:48:34.634Z,19.8
2017-07-19T04:49:36.299Z,19.9
2017-07-19T04:50:38.027Z,19.8
2017-07-19T04:51:39.688Z,19.8
2017-07-19T04:52:41.419Z,19.9
2017-07-19T04:53:43.069Z,19.9
2017-07-19T04:54:44.811Z,19.9
2017-07-19T04:55:46.468Z,20.0
2017-07-19T04:56:48.122Z,20.0
2017-07-19T04:57:49.849Z,20.0
2017-07-19T04:58:51.508Z,20.1
2017-07-19T04:59:53.242Z,20.2
2017-07-19T05:00:54.900Z,20.2
2017-07-19T05:01:56.635Z,20.1
2017-07-19T05:02:58.297Z,20.2
2017-07-19T05:04:00.027Z,20.3
2017-07-19T05:05:01.735Z,20.3
2017-07-19T05:06:03.523Z,20.3
2017-07-19T05:07:05.184Z,20.3
2017-07-19T05:08:07.938Z,20.3
2017-07-19T05:09:09.596Z,20.5
2017-07-19T05:10:11.343Z,20.4
2017-07-19T05:11:12.990Z,20.4
2017-07-19T05:12:14.658Z,20.5
2017-07-19T05:13:16.442Z,20.5
2017-07-19T05:14:18.106Z,20.6
2017-07-19T05:15:19.948Z,20.5
2017-07-19T05:16:21.601Z,20.5
2017-07-19T05:17:23.320Z,20.6
2017-07-19T05:18:24.993Z,20.6
2017-07-19T05:19:26.725Z,20.7
2017-07-19T05:20:28.376Z,20.7
2017-07-19T05:21:30.052Z,20.8
2017-07-19T05:22:31.830Z,20.7
2017-07-19T05:23:33.493Z,20.8
2017-07-19T05:24:35.252Z,20.8
2017-07-19T05:25:36.917Z,20.9
2017-07-19T05:26:38.635Z,20.9
2017-07-19T05:27:40.285Z,20.9
2017-07-19T05:28:41.954Z,21.0
2017-07-19T05:29:43.617Z,20.9
2017-07-19T05:30:45.331Z,21.0
2017-07-19T05:31:46.985Z,21.0
2017-07-19T05:32:48.701Z,21.0
2017-07-19T05:33:50.399Z,21.1
2017-07-19T05:34:52.107Z,21.1
2017-07-19T05:35:53.762Z,21.1
2017-07-19T05:36:55.494Z,21.1
2017-07-19T05:37:57.175Z,21.1
2017-07-19T05:38:58.940Z,21.1
2017-07-19T05:40:00.580Z,21.2
2017-07-19T05:41:02.278Z,21.2
2017-07-19T05:42:03.927Z,21.1
2017-07-19T05:43:05.679Z,21.1
2017-07-19T05:44:07.332Z,21.1
2017-07-19T05:45:09.002Z,21.2
2017-07-19T05:46:10.714Z,21.1
2017-07-19T05:47:14.039Z,21.0
2017-07-19T05:48:15.768Z,21.1
2017-07-19T05:49:17.427Z,21.0
2017-07-19T05:50:19.152Z,21.1
2017-07-19T05:51:20.803Z,21.1
2017-07-19T05:52:22.551Z,21.0
2017-07-19T05:53:24.259Z,21.0
2017-07-19T05:54:26.046Z,21.0
2017-07-19T05:55:27.691Z,21.0
2017-07-19T05:56:29.571Z,21.0
2017-07-19T05:57:31.333Z,21.0
2017-07-19T05:58:33.096Z,21.0
2017-07-19T05:59:34.870Z,21.1
2017-07-19T06:00:36.670Z,21.1
2017-07-19T06:01:38.426Z,21.0
2017-07-19T06:02:40.412Z,21.0
2017-07-19T06:03:42.154Z,21.0
2017-07-19T06:04:44.048Z,21.1
2017-07-19T06:05:45.818Z,21.1
2017-07-19T06:06:47.761Z,21.2
2017-07-19T06:07:49.493Z,21.3
2017-07-19T06:08:52.343Z,21.4
2017-07-19T06:09:54.079Z,21.4
2017-07-19T06:10:55.933Z,21.4
2017-07-19T06:11:57.673Z,21.4
2017-07-19T06:12:59.470Z,21.3
2017-07-19T06:14:01.278Z,21.4
2017-07-19T06:15:03.183Z,21.4
2017-07-19T06:16:05.115Z,21.4
2017-07-19T06:17:07.231Z,21.5
2017-07-19T06:18:10.103Z,21.6
2017-07-19T06:19:11.941Z,21.6
2017-07-19T06:20:13.691Z,21.6
2017-07-19T06:21:15.489Z,21.6
2017-07-19T06:22:17.340Z,21.6
2017-07-19T06:23:19.029Z,21.6
2017-07-19T06:24:20.877Z,21.7
2017-07-19T06:25:22.639Z,21.7
2017-07-19T06:26:24.417Z,21.7
2017-07-19T06:27:26.242Z,21.7
2017-07-19T06:28:27.973Z,21.7
2017-07-19T06:29:29.782Z,21.8
2017-07-19T06:30:31.596Z,21.8
2017-07-19T06:31:33.388Z,21.9
2017-07-19T06:32:35.088Z,21.9
2017-07-19T06:33:36.870Z,21.8
2017-07-19T06:34:38.652Z,21.9
2017-07-19T06:35:40.542Z,21.8
2017-07-19T06:36:42.297Z,21.8
2017-07-19T06:37:43.983Z,21.8
2017-07-19T06:38:45.817Z,21.9
2017-07-19T06:39:47.479Z,21.9
2017-07-19T06:40:49.321Z,22.0
2017-07-19T06:41:50.997Z,22.1
2017-07-19T06:42:52.766Z,22.1
2017-07-19T06:43:54.498Z,22.1
2017-07-19T06:44:56.226Z,22.1
2017-07-19T06:45:58.025Z,22.2
2017-07-19T06:46:59.774Z,22.2
2017-07-19T06:48:02.653Z,22.3
2017-07-19T06:49:04.451Z,22.2
2017-07-19T06:50:06.399Z,22.2
2017-07-19T06:51:08.169Z,22.2
2017-07-19T06:52:10.037Z,22.3
2017-07-19T06:53:11.751Z,22.3
2017-07-19T06:54:13.630Z,22.3
2017-07-19T06:55:15.423Z,22.3
2017-07-19T06:56:18.209Z,22.3
2017-07-19T06:57:19.990Z,22.4
2017-07-19T06:58:21.842Z,22.4
2017-07-19T06:59:23.584Z,22.4
2017-07-19T07:00:25.422Z,22.4
2017-07-19T07:01:27.209Z,22.4
2017-07-19T07:02:29.017Z,22.5
2017-07-19T07:03:30.806Z,22.6
2017-07-19T07:04:32.697Z,22.5
2017-07-19T07:05:34.483Z,22.7
2017-07-19T07:06:36.222Z,22.7
2017-07-19T07:07:38.088Z,22.7
2017-07-19T07:08:39.947Z,22.8
2017-07-19T07:09:41.977Z,22.8
2017-07-19T07:10:48.724Z,22.8
2017-07-19T07:11:50.608Z,22.9
2017-07-19T07:12:54.497Z,22.9
2017-07-19T07:13:56.373Z,23.0
2017-07-19T07:14:58.409Z,23.0
2017-07-19T07:16:00.171Z,23.1
2017-07-19T07:17:02.019Z,23.1
2017-07-19T07:18:03.864Z,23.1
2017-07-19T07:19:05.718Z,23.1
2017-07-19T07:20:07.489Z,23.2
2017-07-19T07:21:09.367Z,23.3
2017-07-19T07:22:11.169Z,23.3
2017-07-19T07:23:13.059Z,23.3
2017-07-19T07:24:14.919Z,23.4
2017-07-19T07:25:16.703Z,23.4
2017-07-19T07:26:18.520Z,23.5
2017-07-19T07:27:20.376Z,23.5
2017-07-19T07:28:22.100Z,23.5
2017-07-19T07:29:23.782Z,23.5
2017-07-19T07:30:25.531Z,23.6
2017-07-19T07:31:27.403Z,23.6
2017-07-19T07:32:29.223Z,23.6
2017-07-19T07:33:31.093Z,23.7
2017-07-19T07:34:32.904Z,23.8
2017-07-19T07:35:34.798Z,23.7
2017-07-19T07:36:36.619Z,23.9
2017-07-19T07:37:38.482Z,23.8
2017-07-19T07:38:40.253Z,23.9
2017-07-19T07:39:42.164Z,23.8
2017-07-19T07:40:44.221Z,23.9
2017-07-19T07:41:46.015Z,23.9
2017-07-19T07:42:47.829Z,24.0
2017-07-19T07:43:49.624Z,24.1
2017-07-19T07:44:51.504Z,24.1
2017-07-19T07:45:53.321Z,24.1
2017-07-19T07:46:55.185Z,24.2
2017-07-19T07:47:56.919Z,24.3
2017-07-19T07:48:58.759Z,24.2
2017-07-19T07:50:00.605Z,24.4
2017-07-19T07:51:02.380Z,24.5
2017-07-19T07:52:04.204Z,24.5
2017-07-19T07:53:06.040Z,24.5
2017-07-19T07:54:07.829Z,24.6
2017-07-19T07:55:09.637Z,24.7
2017-07-19T07:56:11.458Z,24.6
2017-07-19T07:57:13.211Z,24.6
2017-07-19T07:58:14.967Z,24.7
2017-07-19T07:59:16.666Z,24.8
2017-07-19T08:00:18.548Z,24.8
2017-07-19T08:01:20.418Z,24.9
2017-07-19T08:02:22.282Z,24.9
2017-07-19T08:03:24.013Z,25.0
2017-07-19T08:04:25.789Z,25.0
2017-07-19T08:05:27.679Z,25.1
2017-07-19T08:06:29.439Z,25.1
2017-07-19T08:07:31.369Z,25.2
2017-07-19T08:08:33.166Z,25.1
2017-07-19T08:09:37.071Z,25.1
2017-07-19T08:10:38.873Z,25.1
2017-07-19T08:11:42.741Z,25.1
2017-07-19T08:12:44.540Z,25.2
2017-07-19T08:13:46.462Z,25.2
2017-07-19T08:14:48.331Z,25.2
2017-07-19T08:15:50.204Z,25.1
2017-07-19T08:16:52.133Z,25.3
2017-07-19T08:17:55.050Z,25.3
2017-07-19T08:19:59.532Z,25.2
2017-07-19T08:21:01.315Z,25.2
2017-07-19T08:22:03.098Z,25.2
2017-07-19T08:23:04.826Z,25.3
2017-07-19T08:24:06.547Z,25.2
2017-07-19T08:25:08.298Z,25.3
2017-07-19T08:26:10.129Z,25.3
2017-07-19T08:27:11.861Z,25.4
2017-07-19T08:28:13.748Z,25.5
2017-07-19T08:29:15.557Z,25.5
2017-07-19T08:30:17.286Z,25.7
2017-07-19T08:31:19.075Z,25.8
2017-07-19T08:32:20.820Z,25.8
2017-07-19T08:33:22.580Z,25.7
2017-07-19T08:34:24.355Z,25.8
2017-07-19T08:35:26.267Z,25.8
2017-07-19T08:36:28.059Z,25.9
2017-07-19T08:37:29.968Z,26.1
2017-07-19T08:38:31.757Z,26.1
2017-07-19T08:39:33.746Z,26.1
2017-07-19T08:40:35.550Z,26.2
2017-07-19T08:41:37.371Z,26.3
2017-07-19T08:42:39.177Z,26.4
2017-07-19T08:43:41.071Z,26.4
2017-07-19T08:44:42.883Z,26.4
2017-07-19T08:45:44.694Z,26.6
2017-07-19T08:46:46.502Z,26.6
2017-07-19T08:47:48.408Z,26.7
2017-07-19T08:48:50.153Z,26.7
2017-07-19T08:49:52.042Z,26.8
2017-07-19T08:50:53.805Z,26.9
2017-07-19T08:51:55.658Z,26.9
2017-07-19T08:52:57.540Z,26.8
2017-07-19T08:53:59.508Z,27.0
2017-07-19T08:55:01.325Z,27.0
2017-07-19T08:56:03.169Z,27.1
2017-07-19T08:57:04.943Z,27.3
2017-07-19T08:58:06.728Z,27.2
2017-07-19T08:59:08.595Z,27.3
2017-07-19T09:00:10.425Z,27.4
2017-07-19T09:01:12.289Z,27.4
2017-07-19T09:02:14.062Z,27.4
2017-07-19T09:03:15.918Z,27.4
2017-07-19T09:04:17.714Z,27.3
2017-07-19T09:05:19.611Z,27.2
2017-07-19T09:06:21.381Z,27.2
2017-07-19T09:07:23.158Z,27.3
2017-07-19T09:08:24.957Z,27.3
2017-07-19T09:09:26.775Z,27.3
2017-07-19T09:10:28.721Z,27.4
2017-07-19T09:11:30.588Z,27.4
2017-07-19T09:12:32.457Z,27.4
2017-07-19T09:13:34.343Z,27.3
2017-07-19T09:14:37.286Z,27.2
2017-07-19T09:15:39.180Z,27.2
2017-07-19T09:16:41.139Z,27.2
2017-07-19T09:17:42.994Z,27.2
2017-07-19T09:18:46.807Z,27.2
2017-07-19T09:19:48.582Z,27.1
2017-07-19T09:20:50.401Z,27.2
2017-07-19T09:21:52.184Z,27.2
2017-07-19T09:22:54.098Z,27.2
2017-07-19T09:23:55.944Z,27.3
2017-07-19T09:24:57.837Z,27.4
2017-07-19T09:25:59.642Z,27.5
2017-07-19T09:27:01.398Z,27.6
2017-07-19T09:28:03.297Z,27.6
2017-07-19T09:29:05.130Z,27.7
2017-07-19T09:30:06.986Z,27.8
2017-07-19T09:31:08.820Z,27.8
2017-07-19T09:32:10.650Z,27.9
2017-07-19T09:33:12.415Z,27.8
2017-07-19T09:34:14.251Z,27.7
2017-07-19T09:35:16.024Z,27.8
2017-07-19T09:36:17.837Z,27.7
2017-07-19T09:37:19.592Z,27.6
2017-07-19T09:38:21.433Z,27.7
2017-07-19T09:39:23.219Z,27.7
2017-07-19T09:40:24.986Z,27.8
2017-07-19T09:41:26.743Z,27.8
2017-07-19T09:42:28.497Z,27.7
2017-07-19T09:43:30.257Z,27.8
2017-07-19T09:44:32.106Z,27.7
2017-07-19T09:45:33.897Z,27.7
2017-07-19T09:46:35.816Z,27.7
2017-07-19T09:47:37.586Z,27.7
2017-07-19T09:48:39.461Z,27.8
2017-07-19T09:49:41.249Z,27.9
2017-07-19T09:50:43.156Z,27.9
2017-07-19T09:51:44.977Z,27.9
2017-07-19T09:52:46.724Z,27.9
2017-07-19T09:53:48.527Z,28.0
2017-07-19T09:54:50.394Z,27.8
2017-07-19T09:55:52.239Z,27.8
2017-07-19T09:56:54.118Z,27.8
2017-07-19T09:57:55.946Z,27.9
2017-07-19T09:58:57.656Z,27.9
2017-07-19T09:59:59.552Z,27.9
2017-07-19T10:01:01.444Z,27.9
2017-07-19T10:02:03.243Z,28.0
2017-07-19T10:03:05.025Z,28.2
2017-07-19T10:04:06.878Z,28.2
2017-07-19T10:05:08.636Z,28.2
2017-07-19T10:06:10.399Z,28.2
2017-07-19T10:07:12.172Z,28.2
2017-07-19T10:08:14.056Z,28.2
2017-07-19T10:09:15.891Z,28.2
2017-07-19T10:10:17.697Z,28.2
2017-07-19T10:11:19.503Z,28.3
2017-07-19T10:12:21.264Z,28.2
2017-07-19T10:13:23.001Z,28.3
2017-07-19T10:14:24.767Z,28.3
2017-07-19T10:15:26.571Z,28.1
2017-07-19T10:16:28.408Z,28.1
2017-07-19T10:17:30.192Z,28.0
2017-07-19T10:18:32.029Z,27.9
2017-07-19T10:19:33.791Z,27.7
2017-07-19T10:20:35.598Z,27.8
2017-07-19T10:21:37.449Z,27.9
2017-07-19T10:22:39.226Z,27.9
2017-07-19T10:23:40.984Z,28.0
2017-07-19T10:24:42.807Z,28.0
2017-07-19T10:25:44.606Z,28.0
2017-07-19T10:26:46.430Z,27.9
2017-07-19T10:27:48.244Z,27.9
2017-07-19T10:28:50.054Z,28.1
2017-07-19T10:29:51.854Z,28.0
2017-07-19T10:30:53.553Z,28.0
2017-07-19T10:31:55.403Z,27.9
2017-07-19T10:32:57.169Z,28.0
2017-07-19T10:33:59.795Z,28.1
2017-07-19T10:35:01.557Z,28.3
2017-07-19T10:36:03.251Z,28.3
2017-07-19T10:37:05.055Z,28.5
2017-07-19T10:38:06.733Z,28.5
2017-07-19T10:39:08.624Z,28.6
2017-07-19T10:40:10.427Z,28.6
2017-07-19T10:41:12.335Z,28.6
2017-07-19T10:42:14.153Z,28.7
2017-07-19T10:43:16.103Z,28.8
2017-07-19T10:44:17.895Z,28.8
2017-07-19T10:45:19.630Z,28.8
2017-07-19T10:46:21.440Z,28.8
2017-07-19T10:47:23.272Z,28.9
2017-07-19T10:48:25.107Z,28.9
2017-07-19T10:49:26.949Z,28.9
2017-07-19T10:50:28.757Z,28.9
2017-07-19T10:51:30.548Z,28.8
2017-07-19T10:52:32.391Z,28.8
2017-07-19T10:53:34.239Z,28.9
2017-07-19T10:54:36.067Z,29.0
2017-07-19T10:55:37.910Z,29.1
2017-07-19T10:56:39.711Z,29.0
2017-07-19T10:57:41.474Z,29.1
2017-07-19T10:58:43.324Z,29.2
2017-07-19T10:59:45.269Z,29.1
2017-07-19T11:00:47.041Z,29.1
2017-07-19T11:01:48.864Z,29.2
2017-07-19T11:02:50.649Z,29.3
2017-07-19T11:03:52.485Z,29.3
2017-07-19T11:04:54.365Z,29.1
2017-07-19T11:05:56.304Z,29.1
2017-07-19T11:06:58.093Z,29.1
2017-07-19T11:07:59.967Z,29.2
2017-07-19T11:09:01.743Z,29.2
2017-07-19T11:10:03.554Z,29.2
2017-07-19T11:11:05.376Z,29.3
2017-07-19T11:12:07.237Z,29.4
2017-07-19T11:13:09.045Z,29.5
2017-07-19T11:14:10.929Z,29.7
2017-07-19T11:15:12.619Z,29.8
2017-07-19T11:16:14.452Z,29.8
2017-07-19T11:17:16.234Z,29.8
2017-07-19T11:18:18.016Z,29.8
2017-07-19T11:19:19.778Z,29.8
2017-07-19T11:20:21.514Z,29.9
2017-07-19T11:21:23.293Z,30.0
2017-07-19T11:22:25.087Z,30.1
2017-07-19T11:23:26.868Z,30.0
2017-07-19T11:24:28.627Z,30.1
2017-07-19T11:25:30.354Z,30.0
2017-07-19T11:26:32.221Z,30.1
2017-07-19T11:27:33.916Z,30.1
2017-07-19T11:28:35.757Z,29.9
2017-07-19T11:29:37.577Z,30.0
2017-07-19T11:30:39.419Z,30.1
2017-07-19T11:31:41.197Z,30.3
2017-07-19T11:32:43.086Z,30.2
2017-07-19T11:33:44.826Z,30.2
2017-07-19T11:34:46.726Z,30.1
2017-07-19T11:35:48.529Z,30.1
2017-07-19T11:36:50.394Z,29.9
2017-07-19T11:37:52.302Z,29.8
2017-07-19T11:38:54.250Z,29.7
2017-07-19T11:39:56.057Z,29.7
2017-07-19T11:40:57.910Z,29.7
2017-07-19T11:41:59.749Z,29.7
2017-07-19T11:43:01.680Z,29.8
2017-07-19T11:44:03.452Z,29.9
2017-07-19T11:45:05.322Z,30.0
2017-07-19T11:46:07.145Z,30.1
2017-07-19T11:47:09.054Z,30.1
2017-07-19T11:48:10.893Z,30.2
2017-07-19T11:49:12.787Z,30.2
2017-07-19T11:50:14.652Z,30.2
2017-07-19T11:51:16.546Z,30.3
2017-07-19T11:52:18.404Z,30.4
2017-07-19T11:53:20.247Z,30.4
2017-07-19T11:54:22.048Z,30.5
2017-07-19T11:55:23.828Z,30.6
2017-07-19T11:56:25.937Z,30.6
2017-07-19T11:57:27.738Z,30.7
2017-07-19T11:58:29.583Z,30.7
2017-07-19T11:59:31.420Z,30.7
2017-07-19T12:00:34.350Z,30.7
2017-07-19T12:01:36.065Z,30.8
2017-07-19T12:02:37.897Z,31.0
2017-07-19T12:03:39.719Z,31.1
2017-07-19T12:04:41.511Z,31.3
2017-07-19T12:05:43.297Z,31.3
2017-07-19T12:06:45.166Z,31.3
2017-07-19T12:07:46.994Z,31.2
2017-07-19T12:08:48.875Z,31.1
2017-07-19T12:09:50.674Z,31.0
2017-07-19T12:10:52.407Z,31.0
2017-07-19T12:11:54.220Z,31.0
2017-07-19T12:12:56.023Z,31.0
2017-07-19T12:13:57.910Z,31.0
2017-07-19T12:14:59.750Z,31.1
2017-07-19T12:16:01.431Z,31.1
2017-07-19T12:17:06.080Z,31.2
2017-07-19T12:18:09.278Z,31.2
2017-07-19T12:19:11.037Z,31.4
2017-07-19T12:20:12.741Z,31.6
2017-07-19T12:21:14.448Z,31.8
2017-07-19T12:22:16.198Z,31.8
2017-07-19T12:23:18.006Z,31.7
2017-07-19T12:24:19.927Z,31.7
2017-07-19T12:25:21.773Z,31.6
2017-07-19T12:26:23.612Z,31.6
2017-07-19T12:27:25.486Z,31.5
2017-07-19T12:28:27.223Z,31.6
2017-07-19T12:29:29.021Z,31.7
2017-07-19T12:30:30.906Z,31.9
2017-07-19T12:31:32.664Z,32.0
2017-07-19T12:32:34.536Z,32.1
2017-07-19T12:33:36.400Z,32.1
2017-07-19T12:34:38.279Z,32.1
2017-07-19T12:35:40.156Z,32.1
2017-07-19T12:36:42.027Z,32.1
2017-07-19T12:37:43.836Z,32.2
2017-07-19T12:38:45.655Z,32.1
2017-07-19T12:39:47.503Z,32.0
2017-07-19T12:40:49.439Z,32.1
2017-07-19T12:41:51.195Z,32.1
2017-07-19T12:42:52.978Z,32.2
2017-07-19T12:43:54.772Z,32.1
2017-07-19T12:44:56.572Z,32.1
2017-07-19T12:45:58.440Z,32.2
2017-07-19T12:47:00.250Z,32.2
2017-07-19T12:48:02.026Z,32.2
2017-07-19T12:49:03.854Z,32.2
2017-07-19T12:50:05.669Z,32.1
2017-07-19T12:51:07.503Z,32.0
2017-07-19T12:52:09.277Z,32.2
2017-07-19T12:53:11.083Z,32.0
2017-07-19T12:54:12.831Z,32.0
2017-07-19T12:55:14.655Z,32.0
2017-07-19T12:56:16.361Z,32.0
2017-07-19T12:57:18.115Z,32.0
2017-07-19T12:58:19.946Z,32.2
2017-07-19T12:59:21.744Z,32.2
2017-07-19T13:00:23.537Z,32.4
2017-07-19T13:01:25.314Z,32.4
2017-07-19T13:02:27.108Z,32.4
2017-07-19T13:03:28.913Z,32.4
2017-07-19T13:04:30.734Z,32.4
2017-07-19T13:05:32.593Z,32.4
2017-07-19T13:06:34.405Z,32.4
2017-07-19T13:07:36.273Z,32.4
2017-07-19T13:08:38.102Z,32.4
2017-07-19T13:09:40.020Z,32.4
2017-07-19T13:10:41.826Z,32.4
2017-07-19T13:11:43.587Z,32.4
2017-07-19T13:12:45.428Z,32.6
2017-07-19T13:13:47.246Z,32.5
2017-07-19T13:14:49.115Z,32.4
2017-07-19T13:15:50.921Z,32.3
2017-07-19T13:16:52.755Z,32.2
2017-07-19T13:17:54.528Z,32.3
2017-07-19T13:18:56.416Z,32.4
2017-07-19T13:19:58.278Z,32.4
2017-07-19T13:21:00.059Z,32.5
2017-07-19T13:22:03.027Z,32.5
2017-07-19T13:23:04.829Z,32.4
2017-07-19T13:24:06.615Z,32.5
2017-07-19T13:25:08.357Z,32.6
2017-07-19T13:26:10.135Z,32.5
2017-07-19T13:27:11.955Z,32.6
2017-07-19T13:28:13.889Z,32.7
2017-07-19T13:29:15.783Z,32.8
2017-07-19T13:30:17.592Z,33.0
2017-07-19T13:31:19.359Z,33.0
2017-07-19T13:32:21.124Z,32.9
2017-07-19T13:33:22.905Z,32.9
2017-07-19T13:34:24.687Z,32.8
2017-07-19T13:35:26.477Z,32.8
2017-07-19T13:36:28.237Z,32.7
2017-07-19T13:37:29.990Z,32.9
2017-07-19T13:38:31.847Z,32.7
2017-07-19T13:39:33.677Z,32.7
2017-07-19T13:40:35.508Z,32.6
2017-07-19T13:41:37.302Z,32.5
2017-07-19T13:42:39.096Z,32.5
2017-07-19T13:43:40.948Z,32.5